createdAt,value
2019-04-10T00:01:46.096Z,77.70
2019-04-10T00:05:50.009Z,77.60
2019-04-10T00:09:53.213Z,76.10
2019-04-10T00:13:56.348Z,77.10
2019-04-10T00:17:59.846Z,77.20
2019-04-10T00:22:04.180Z,76.90
2019-04-10T00:26:07.703Z,77.00
2019-04-10T00:30:11.219Z,77.10
2019-04-10T00:34:14.290Z,77.30
2019-04-10T00:38:17.678Z,76.80
2019-04-10T00:42:21.063Z,77.30
2019-04-10T00:46:24.694Z,76.50
2019-04-10T00:50:28.679Z,75.80
2019-04-10T00:54:33.012Z,76.00
2019-04-10T00:58:37.447Z,75.80
2019-04-10T01:02:41.327Z,76.10
2019-04-10T01:06:44.397Z,76.50
2019-04-10T01:10:47.576Z,76.60
2019-04-10T01:14:50.855Z,76.90
2019-04-10T01:18:54.080Z,76.50
2019-04-10T01:22:57.366Z,76.10
2019-04-10T01:27:01.306Z,75.80
2019-04-10T01:31:04.547Z,76.30
2019-04-10T01:35:07.935Z,76.10
2019-04-10T01:39:13.766Z,76.00
2019-04-10T01:43:18.956Z,75.60
2019-04-10T01:47:21.870Z,75.90
2019-04-10T01:51:25.509Z,75.90
2019-04-10T01:55:31.058Z,75.60
2019-04-10T01:59:36.159Z,75.70
2019-04-10T02:03:42.425Z,75.60
2019-04-10T02:07:57.840Z,75.40
2019-04-10T02:11:50.787Z,75.40
2019-04-10T02:15:54.468Z,75.80
2019-04-10T02:19:58.630Z,75.80
2019-04-10T02:24:02.857Z,76.00
2019-04-10T02:28:06.893Z,76.00
2019-04-10T02:32:10.345Z,75.70
2019-04-10T02:36:13.637Z,75.90
2019-04-10T02:40:17.265Z,76.00
2019-04-10T02:44:20.681Z,75.60
2019-04-10T02:48:25.201Z,75.90
2019-04-10T02:52:28.733Z,75.70
2019-04-10T02:56:33.242Z,75.80
2019-04-10T03:00:37.826Z,76.10
2019-04-10T03:04:42.641Z,76.60
2019-04-10T03:09:02.417Z,76.90
2019-04-10T03:12:52.426Z,76.80
2019-04-10T03:16:55.642Z,77.80
2019-04-10T03:20:58.686Z,77.50
2019-04-10T03:25:02.615Z,77.50
2019-04-10T03:29:07.360Z,77.00
2019-04-10T03:33:18.995Z,77.00
2019-04-10T03:37:18.137Z,76.50
2019-04-10T03:41:21.358Z,77.00
2019-04-10T03:45:24.646Z,75.70
2019-04-10T03:49:27.914Z,75.90
2019-04-10T03:53:31.977Z,75.50
2019-04-10T03:57:35.162Z,75.30
2019-04-10T04:01:38.925Z,75.10
2019-04-10T04:05:42.652Z,75.00
2019-04-10T04:09:46.046Z,75.30
2019-04-10T04:13:50.400Z,75.00
2019-04-10T04:17:54.715Z,75.60
2019-04-10T04:21:58.465Z,76.20
2019-04-10T04:26:01.705Z,76.30
2019-04-10T04:30:08.518Z,76.50
2019-04-10T04:34:12.267Z,75.80
2019-04-10T04:38:16.319Z,76.30
2019-04-10T04:42:19.535Z,78.10
2019-04-10T04:46:22.700Z,76.80
2019-04-10T04:50:27.035Z,76.70
2019-04-10T04:54:30.994Z,76.20
2019-04-10T04:58:34.260Z,76.90
2019-04-10T05:02:37.313Z,76.50
2019-04-10T05:06:41.924Z,75.90
2019-04-10T05:10:46.003Z,76.60
2019-04-10T05:14:49.525Z,75.40
2019-04-10T05:18:52.659Z,75.50
2019-04-10T05:22:55.819Z,75.20
2019-04-10T05:26:59.235Z,75.70
2019-04-10T05:31:03.091Z,76.30
2019-04-10T05:35:08.492Z,76.50
2019-04-10T05:39:12.628Z,76.30
2019-04-10T05:43:15.785Z,76.70
2019-04-10T05:47:19.251Z,76.50
2019-04-10T05:51:23.349Z,75.80
2019-04-10T05:55:26.693Z,76.60
2019-04-10T05:59:30.111Z,75.60
2019-04-10T06:03:33.482Z,75.70
2019-04-10T06:07:37.835Z,76.10
2019-04-10T06:11:42.979Z,75.50
2019-04-10T06:15:45.874Z,75.10
2019-04-10T06:19:49.006Z,75.60
2019-04-10T06:23:52.237Z,75.80
2019-04-10T06:27:55.279Z,74.90
2019-04-10T06:31:59.005Z,75.00
2019-04-10T06:36:02.850Z,73.70
2019-04-10T06:40:15.342Z,74.90
2019-04-10T06:44:11.884Z,75.10
2019-04-10T06:48:17.194Z,74.30
2019-04-10T06:52:20.693Z,73.60
2019-04-10T06:56:24.986Z,75.00
2019-04-10T07:00:28.636Z,73.70
2019-04-10T07:04:42.843Z,73.90
2019-04-10T07:08:40.179Z,73.70
2019-04-10T07:12:47.777Z,73.70
2019-04-10T07:16:51.199Z,73.30
2019-04-10T07:20:58.325Z,73.20
2019-04-10T07:25:00.496Z,73.20
2019-04-10T07:29:04.603Z,73.30
2019-04-10T07:33:07.767Z,72.60
2019-04-10T07:37:14.664Z,72.00
2019-04-10T07:41:21.021Z,72.20
2019-04-10T07:45:20.884Z,71.20
2019-04-10T07:49:26.652Z,70.80
2019-04-10T07:53:29.267Z,70.10
2019-04-10T07:57:32.889Z,70.00
2019-04-10T08:01:36.069Z,69.20
2019-04-10T08:05:39.296Z,69.10
2019-04-10T08:09:44.474Z,67.90
2019-04-10T08:13:47.680Z,67.00
2019-04-10T08:17:51.401Z,65.40
2019-04-10T08:21:54.885Z,64.50
2019-04-10T08:25:58.069Z,60.40
2019-04-10T08:30:01.258Z,60.10
2019-04-10T08:34:04.388Z,59.50
2019-04-10T08:38:07.663Z,58.60
2019-04-10T08:42:10.905Z,59.40
2019-04-10T08:46:14.821Z,56.90
2019-04-10T08:50:17.832Z,57.40
2019-04-10T08:54:20.853Z,56.40
2019-04-10T08:58:24.972Z,57.80
2019-04-10T09:02:28.313Z,55.40
2019-04-10T09:06:31.572Z,52.40
2019-04-10T09:10:36.612Z,49.80
2019-04-10T09:14:39.700Z,46.30
2019-04-10T09:18:42.781Z,45.00
2019-04-10T09:23:10.342Z,48.80
2019-04-10T09:26:50.899Z,48.80
2019-04-10T09:30:54.025Z,48.70
2019-04-10T09:34:58.211Z,49.80
2019-04-10T09:39:01.352Z,49.70
2019-04-10T09:43:05.087Z,50.50
2019-04-10T09:47:08.158Z,50.40
2019-04-10T09:51:11.771Z,51.30
2019-04-10T09:55:15.849Z,50.80
2019-04-10T09:59:30.589Z,50.80
2019-04-10T10:03:24.215Z,50.50
2019-04-10T10:07:28.364Z,49.20
2019-04-10T10:11:31.866Z,49.10
2019-04-10T10:15:35.574Z,49.10
2019-04-10T10:19:39.344Z,49.70
2019-04-10T10:23:44.649Z,50.00
2019-04-10T10:27:48.889Z,49.20
2019-04-10T10:31:52.685Z,48.60
2019-04-10T10:35:57.743Z,49.10
2019-04-10T10:40:01.337Z,60.90
2019-04-10T10:44:04.841Z,53.50
2019-04-10T10:48:08.677Z,49.90
2019-04-10T10:52:12.209Z,48.50
2019-04-10T10:56:15.379Z,42.30
2019-04-10T11:00:19.563Z,45.10
2019-04-10T11:04:23.259Z,41.70
2019-04-10T11:08:26.909Z,42.00
2019-04-10T11:12:31.089Z,41.90
2019-04-10T11:16:34.147Z,40.90
2019-04-10T11:20:37.156Z,38.60
2019-04-10T11:24:41.286Z,38.90
2019-04-10T11:28:45.620Z,37.40
2019-04-10T11:32:48.830Z,40.90
2019-04-10T11:37:14.230Z,39.50
2019-04-10T11:40:59.769Z,40.40
2019-04-10T11:45:05.216Z,40.10
2019-04-10T11:49:12.925Z,41.20
2019-04-10T11:53:14.556Z,42.10
2019-04-10T11:57:20.457Z,41.70
2019-04-10T12:01:25.519Z,43.80
2019-04-10T12:05:29.710Z,40.90
2019-04-10T12:13:38.952Z,43.00
2019-04-10T12:17:43.080Z,40.50
2019-04-10T12:21:47.613Z,39.40
2019-04-10T12:25:52.207Z,41.70
2019-04-10T12:29:55.827Z,40.40
2019-04-10T12:33:59.925Z,39.00
2019-04-10T12:38:08.115Z,39.20
2019-04-10T12:42:10.074Z,39.70
2019-04-10T12:46:13.301Z,39.20
2019-04-10T12:50:16.571Z,38.80
2019-04-10T12:54:19.672Z,39.00
2019-04-10T12:58:22.842Z,39.00
2019-04-10T13:02:26.178Z,40.30
2019-04-10T13:06:29.734Z,39.40
2019-04-10T13:10:33.617Z,36.90
2019-04-10T13:14:39.748Z,36.00
2019-04-10T13:18:42.979Z,37.30
2019-04-10T13:22:46.456Z,36.80
2019-04-10T13:26:50.209Z,37.50
2019-04-10T13:30:55.252Z,38.20
2019-04-10T13:34:58.360Z,39.30
2019-04-10T13:39:02.385Z,38.80
2019-04-10T13:43:05.621Z,38.80
2019-04-10T13:47:09.044Z,40.20
2019-04-10T13:51:13.111Z,40.50
2019-04-10T13:55:16.924Z,38.90
2019-04-10T13:59:20.690Z,39.20
2019-04-10T14:03:24.029Z,38.90
2019-04-10T14:07:28.285Z,37.70
2019-04-10T14:11:31.459Z,39.40
2019-04-10T14:15:36.194Z,42.60
2019-04-10T14:19:39.487Z,41.90
2019-04-10T14:23:43.132Z,38.60
2019-04-10T14:27:46.646Z,37.60
2019-04-10T14:31:51.763Z,38.20
2019-04-10T14:35:55.757Z,38.50
2019-04-10T14:39:59.833Z,38.30
2019-04-10T14:44:04.003Z,37.20
2019-04-10T14:48:07.909Z,37.50
2019-04-10T14:52:11.124Z,38.20
2019-04-10T14:56:14.384Z,39.10
2019-04-10T15:00:37.221Z,38.60
2019-04-10T15:04:41.400Z,37.90
2019-04-10T15:08:44.677Z,38.20
2019-04-10T15:12:47.994Z,38.30
2019-04-10T15:16:59.507Z,40.10
2019-04-10T15:20:58.605Z,39.10
2019-04-10T15:25:01.863Z,38.40
2019-04-10T15:29:05.838Z,39.50
2019-04-10T15:33:10.026Z,38.80
2019-04-10T15:37:13.244Z,38.80
2019-04-10T15:41:16.940Z,39.90
2019-04-10T15:45:20.092Z,40.00
2019-04-10T15:49:23.237Z,40.40
2019-04-10T15:53:26.483Z,40.30
2019-04-10T15:57:29.621Z,40.10
2019-04-10T16:01:33.060Z,40.40
2019-04-10T16:05:36.174Z,40.90
2019-04-10T16:09:48.624Z,40.00
2019-04-10T16:13:46.469Z,40.30
2019-04-10T16:18:00.639Z,41.00
2019-04-10T16:22:06.559Z,40.80
2019-04-10T16:26:11.083Z,40.80
2019-04-10T16:30:17.232Z,40.90
2019-04-10T16:34:20.617Z,40.70
2019-04-10T16:38:24.661Z,39.80
2019-04-10T16:42:28.584Z,40.40
2019-04-10T16:46:32.087Z,40.70
2019-04-10T16:50:36.411Z,40.10
2019-04-10T16:54:40.738Z,40.50
2019-04-10T16:58:44.474Z,40.70
2019-04-10T17:02:48.515Z,40.80
2019-04-10T17:06:52.571Z,40.70
2019-04-10T17:10:56.737Z,40.80
2019-04-10T17:14:59.910Z,41.40
2019-04-10T17:19:03.983Z,41.80
2019-04-10T17:23:08.150Z,41.10
2019-04-10T17:27:11.437Z,41.80
2019-04-10T17:31:14.549Z,42.60
2019-04-10T17:35:17.651Z,41.60
2019-04-10T17:39:20.709Z,41.40
2019-04-10T17:43:23.717Z,42.00
2019-04-10T17:47:27.015Z,41.80
2019-04-10T17:51:30.461Z,41.80
2019-04-10T17:55:35.699Z,41.60
2019-04-10T17:59:38.997Z,42.10
2019-04-10T18:03:50.413Z,41.80
2019-04-10T18:07:48.124Z,42.00
2019-04-10T18:11:51.414Z,42.50
2019-04-10T18:15:55.554Z,42.50
2019-04-10T18:20:01.260Z,42.40
2019-04-10T18:24:04.369Z,42.60
2019-04-10T18:28:07.754Z,42.70
2019-04-10T18:32:11.775Z,43.30
2019-04-10T18:36:15.377Z,42.80
2019-04-10T18:40:19.079Z,42.40
2019-04-10T18:44:22.746Z,42.50
2019-04-10T18:48:26.779Z,42.30
2019-04-10T18:52:30.132Z,42.90
2019-04-10T18:56:33.488Z,43.40
2019-04-10T19:00:41.180Z,43.40
2019-04-10T19:04:55.115Z,43.70
2019-04-10T19:09:08.271Z,44.20
2019-04-10T19:13:05.381Z,44.60
2019-04-10T19:17:09.113Z,44.90
2019-04-10T19:21:13.379Z,45.10
2019-04-10T19:25:16.538Z,45.20
2019-04-10T19:29:19.752Z,45.40
2019-04-10T19:33:23.760Z,45.60
2019-04-10T19:37:28.451Z,45.80
2019-04-10T19:41:37.808Z,46.40
2019-04-10T19:45:38.144Z,46.30
2019-04-10T19:49:41.360Z,46.40
2019-04-10T19:53:45.677Z,46.70
2019-04-10T19:57:49.975Z,47.40
2019-04-10T20:01:53.093Z,47.30
2019-04-10T20:05:56.159Z,47.30
2019-04-10T20:09:59.293Z,46.80
2019-04-10T20:14:04.035Z,48.10
2019-04-10T20:18:08.491Z,47.70
2019-04-10T20:22:12.811Z,48.00
2019-04-10T20:26:15.868Z,47.60
2019-04-10T20:30:20.937Z,47.90
2019-04-10T20:34:24.253Z,47.90
2019-04-10T20:38:27.456Z,48.30
2019-04-10T20:42:30.501Z,48.30
2019-04-10T20:46:33.947Z,48.30
2019-04-10T20:50:48.833Z,48.70
2019-04-10T20:54:53.062Z,48.50
2019-04-10T20:58:56.277Z,48.90
2019-04-10T21:03:04.189Z,48.40
2019-04-10T21:07:07.252Z,48.80
2019-04-10T21:11:11.620Z,49.30
2019-04-10T21:15:14.796Z,49.20
2019-04-10T21:19:18.499Z,49.60
2019-04-10T21:23:23.823Z,49.70
2019-04-10T21:27:28.105Z,50.10
2019-04-10T21:31:34.153Z,49.70
2019-04-10T21:35:39.336Z,50.00
2019-04-10T21:39:43.662Z,50.10
2019-04-10T21:43:47.386Z,50.60
2019-04-10T21:47:50.552Z,49.90
2019-04-10T21:52:06.074Z,50.40
2019-04-10T21:56:10.336Z,50.90
2019-04-10T22:00:16.407Z,51.10
2019-04-10T22:04:19.559Z,51.30
2019-04-10T22:08:42.465Z,52.00
2019-04-10T22:12:47.691Z,51.80
2019-04-10T22:16:50.590Z,51.80
2019-04-10T22:20:54.167Z,52.40
2019-04-10T22:24:59.137Z,52.60
2019-04-10T22:29:03.604Z,53.00
2019-04-10T22:33:07.647Z,53.00
2019-04-10T22:37:11.992Z,53.20
2019-04-10T22:41:23.636Z,53.40
2019-04-10T22:45:27.974Z,53.80
2019-04-10T22:49:32.633Z,54.10
2019-04-10T22:53:36.084Z,53.80
2019-04-10T22:57:40.913Z,54.20
2019-04-10T23:01:45.345Z,54.10
2019-04-10T23:05:48.926Z,54.10
2019-04-10T23:09:52.763Z,54.50
2019-04-10T23:13:56.385Z,54.50
2019-04-10T23:17:59.618Z,54.50
2019-04-10T23:22:05.154Z,54.80
2019-04-10T23:26:11.115Z,55.00
2019-04-10T23:30:18.685Z,55.30
2019-04-10T23:34:22.964Z,55.40
2019-04-10T23:38:26.124Z,55.40
2019-04-10T23:42:30.275Z,55.50
2019-04-10T23:46:36.898Z,55.70
2019-04-10T23:50:40.661Z,55.90
2019-04-10T23:54:41.936Z,56.20
2019-04-10T23:58:44.390Z,56.20
